Time;durP1;ratioP1;P1;durP2;ratioP2;P2;SDS_P1;SDS_P2;PMS_P1;PMS_P2;Temp;Humidity;BMP_temperature;BMP_pressure;BME280_temperature;BME280_humidity;BME280_pressure;Samples;Min_cycle;Max_cycle;Signal;HPM_P1;HPM_P2
2022/03/08 00:01:09;;;;;;;38.25;18.38;;;;;;;-1.93;72.83;99059.59;5111427;28;20023;-77
2022/03/08 00:03:35;;;;;;;38.50;19.30;;;;;;;-1.92;72.89;99061.25;5073467;28;20119;-80
2022/03/08 00:06:01;;;;;;;39.05;18.48;;;;;;;-1.92;72.78;99055.88;5112154;28;20028;-81
2022/03/08 00:08:26;;;;;;;34.65;17.23;;;;;;;-1.95;72.56;99057.13;5111658;28;20062;-81
2022/03/08 00:10:52;;;;;;;39.05;18.98;;;;;;;-1.99;72.69;99053.97;5111137;28;20027;-80
2022/03/08 00:13:18;;;;;;;34.58;17.35;;;;;;;-2.03;72.59;99054.59;5111568;28;20024;-80
2022/03/08 00:15:43;;;;;;;37.55;18.70;;;;;;;-2.04;72.84;99052.94;5111155;28;20749;-80
2022/03/08 00:18:08;;;;;;;34.03;15.82;;;;;;;-2.06;72.80;99050.44;5111978;28;20027;-79
2022/03/08 00:20:34;;;;;;;36.15;18.23;;;;;;;-2.05;73.10;99059.31;5111221;28;20053;-80
2022/03/08 00:23:00;;;;;;;35.20;17.27;;;;;;;-2.04;72.95;99061.84;5093178;28;20062;-80
2022/03/08 00:25:26;;;;;;;36.42;18.25;;;;;;;-2.03;73.00;99068.84;5111833;28;20020;-80
2022/03/08 00:27:52;;;;;;;36.33;18.88;;;;;;;-2.03;72.99;99060.78;5112316;28;20047;-80
2022/03/08 00:30:20;;;;;;;30.75;16.25;;;;;;;-1.99;72.83;99053.16;5094145;28;20047;-81
2022/03/08 00:32:46;;;;;;;36.67;16.98;;;;;;;-1.91;73.01;99060.22;5111096;28;20015;-78
2022/03/08 00:35:12;;;;;;;37.50;17.05;;;;;;;-1.85;73.04;99062.97;5109679;28;20035;-77
2022/03/08 00:37:38;;;;;;;35.90;16.65;;;;;;;-1.77;72.90;99069.16;5111052;28;20483;-81
2022/03/08 00:40:06;;;;;;;35.03;17.50;;;;;;;-1.74;72.67;99060.69;5110599;28;20035;-81
2022/03/08 00:42:32;;;;;;;40.40;19.77;;;;;;;-1.75;72.76;99057.19;5111152;28;20039;-80
2022/03/08 00:44:57;;;;;;;37.33;17.88;;;;;;;-1.78;73.04;99062.13;5110985;28;20027;-81
2022/03/08 00:47:23;;;;;;;42.15;18.70;;;;;;;-1.82;72.64;99065.22;5111246;28;20103;-81
2022/03/08 00:49:48;;;;;;;43.45;19.98;;;;;;;-1.83;72.36;99065.44;5090930;28;20020;-81
2022/03/08 00:52:14;;;;;;;46.17;19.48;;;;;;;-1.83;72.39;99060.06;5111149;28;20020;-81
2022/03/08 00:54:39;;;;;;;40.40;18.65;;;;;;;-1.87;72.20;99067.69;5111091;28;20395;-81
2022/03/08 00:57:05;;;;;;;41.08;19.30;;;;;;;-1.91;71.85;99066.44;5110915;28;20036;-81
2022/03/08 00:59:31;;;;;;;38.78;18.00;;;;;;;-1.99;71.58;99056.66;5091556;28;20084;-81
2022/03/08 01:01:56;;;;;;;41.33;19.65;;;;;;;-2.06;71.39;99058.50;5111152;28;21647;-81
2022/03/08 01:04:22;;;;;;;45.78;20.77;;;;;;;-2.14;71.88;99059.50;5112100;28;20015;-81
2022/03/08 01:06:47;;;;;;;45.08;19.55;;;;;;;-2.17;71.80;99059.06;5111283;28;20097;-81
2022/03/08 01:09:13;;;;;;;45.88;20.85;;;;;;;-2.24;71.57;99059.00;5111698;28;20039;-81
2022/03/08 01:11:39;;;;;;;44.92;20.77;;;;;;;-2.25;72.00;99057.38;5111299;28;20049;-81
2022/03/08 01:14:08;;;;;;;44.97;21.27;;;;;;;-2.29;71.73;99046.19;5109165;28;20464;-81
2022/03/08 01:16:35;;;;;;;42.67;20.05;;;;;;;-2.28;71.95;99055.91;5111391;28;20031;-81
2022/03/08 01:19:02;;;;;;;40.63;19.10;;;;;;;-2.30;71.61;99051.75;5110969;28;20019;-81
2022/03/08 01:21:28;;;;;;;39.33;18.98;;;;;;;-2.31;71.84;99058.16;5110659;28;20016;-81
2022/03/08 01:23:53;;;;;;;49.13;23.98;;;;;;;-2.33;71.91;99057.53;5110655;28;20031;-81
2022/03/08 01:26:19;;;;;;;46.33;24.48;;;;;;;-2.34;71.81;99063.94;5110713;28;20049;-81
2022/03/08 01:28:44;;;;;;;51.60;24.80;;;;;;;-2.35;71.64;99060.41;5111613;28;20019;-82
2022/03/08 01:31:10;;;;;;;44.55;23.55;;;;;;;-2.35;71.47;99060.41;5110201;28;20051;-81
2022/03/08 01:33:35;;;;;;;53.85;23.90;;;;;;;-2.42;71.41;99064.91;5111004;28;20023;-81
2022/03/08 01:36:01;;;;;;;46.95;22.92;;;;;;;-2.48;71.55;99065.72;5110413;28;20476;-81
2022/03/08 01:38:27;;;;;;;51.33;21.77;;;;;;;-2.53;71.43;99071.66;5110957;28;20126;-81
2022/03/08 01:40:52;;;;;;;53.20;22.48;;;;;;;-2.57;71.38;99073.06;5110665;28;20020;-82
2022/03/08 01:43:18;;;;;;;48.10;21.15;;;;;;;-2.60;71.55;99070.75;5110386;28;20026;-82
2022/03/08 01:45:43;;;;;;;50.50;23.02;;;;;;;-2.63;71.66;99080.06;5110933;28;20107;-83
2022/03/08 01:48:09;;;;;;;51.15;22.85;;;;;;;-2.60;71.52;99078.81;5110878;28;20467;-83
2022/03/08 01:50:34;;;;;;;47.13;20.58;;;;;;;-2.57;71.72;99081.13;5108795;28;20015;-83
2022/03/08 01:53:00;;;;;;;43.88;20.58;;;;;;;-2.62;71.89;99070.97;5109884;28;20085;-82
2022/03/08 01:55:25;;;;;;;38.70;19.08;;;;;;;-2.63;71.78;99079.22;5109919;28;20445;-82
2022/03/08 01:57:52;;;;;;;42.63;20.63;;;;;;;-2.61;72.31;99085.22;5110930;28;20062;-82
2022/03/08 02:00:30;;;;;;;42.13;20.55;;;;;;;-2.59;72.62;99073.28;5110848;28;20535;-82
2022/03/08 02:02:57;;;;;;;42.08;22.10;;;;;;;-2.57;72.35;99081.13;5110557;28;20027;-82
2022/03/08 02:05:24;;;;;;;48.80;24.67;;;;;;;-2.59;72.13;99075.97;5091931;28;20441;-82
2022/03/08 02:07:49;;;;;;;44.33;21.20;;;;;;;-2.61;71.77;99086.06;5110557;28;20089;-82
2022/03/08 02:10:15;;;;;;;43.10;19.88;;;;;;;-2.63;71.84;99079.22;5109851;28;20020;-82
2022/03/08 02:12:41;;;;;;;37.15;18.05;;;;;;;-2.67;71.99;99076.09;5109914;28;20019;-82
2022/03/08 02:15:14;;;;;;;39.72;19.02;;;;;;;-2.66;71.79;99077.75;5110352;28;20468;-82
2022/03/08 02:17:40;;;;;;;39.67;19.30;;;;;;;-2.66;71.81;99068.88;5108230;28;20030;-82
2022/03/08 02:20:07;;;;;;;35.85;18.75;;;;;;;-2.71;71.62;99059.56;5109943;28;20015;-82
2022/03/08 02:22:32;;;;;;;35.67;18.60;;;;;;;-2.72;71.90;99065.94;5109778;28;20030;-82
2022/03/08 02:24:58;;;;;;;39.28;18.48;;;;;;;-2.73;71.77;99064.28;5110304;28;20019;-82
2022/03/08 02:27:24;;;;;;;36.00;19.02;;;;;;;-2.74;71.79;99068.00;5109819;28;20027;-81
2022/03/08 02:29:50;;;;;;;33.75;17.55;;;;;;;-2.75;71.63;99063.66;5109925;28;20035;-83
2022/03/08 02:32:16;;;;;;;36.97;20.02;;;;;;;-2.75;71.70;99065.50;5107313;28;20023;-82
2022/03/08 02:34:42;;;;;;;39.58;21.10;;;;;;;-2.76;71.60;99058.47;5110030;28;20023;-82
2022/03/08 02:37:12;;;;;;;38.88;20.40;;;;;;;-2.76;71.58;99066.50;5110064;28;20031;-82
2022/03/08 02:39:38;;;;;;;;;;;;;;;-2.77;71.26;99067.53;5110290;28;20016;-82
2022/03/08 02:42:04;;;;;;;33.80;19.33;;;;;;;-2.82;71.65;99069.97;5109288;28;20539;-83
2022/03/08 02:44:30;;;;;;;37.85;19.35;;;;;;;-2.88;71.40;99068.91;5109797;28;20022;-82
2022/03/08 02:46:56;;;;;;;42.58;20.20;;;;;;;-2.91;71.51;99077.34;5107949;28;20024;-82
2022/03/08 02:49:22;;;;;;;36.78;19.58;;;;;;;-2.95;71.45;99071.53;5109858;28;20030;-82
2022/03/08 02:51:47;;;;;;;35.17;18.65;;;;;;;-2.99;71.42;99071.06;5109677;28;20107;-83
2022/03/08 02:54:13;;;;;;;38.05;19.45;;;;;;;-3.03;71.36;99067.13;5110788;28;20067;-83
2022/03/08 02:56:38;;;;;;;43.83;21.48;;;;;;;-3.10;71.14;99062.72;5110691;28;20039;-82
2022/03/08 02:59:04;;;;;;;49.67;22.70;;;;;;;-3.18;71.03;99066.38;5110861;28;20486;-82
2022/03/08 03:01:29;;;;;;;52.83;23.20;;;;;;;-3.27;70.99;99064.84;5089672;28;20119;-83
2022/03/08 03:03:55;;;;;;;48.63;21.13;;;;;;;-3.38;71.29;99061.63;5111049;28;20460;-77
2022/03/08 03:06:20;;;;;;;44.33;20.00;;;;;;;-3.43;71.38;99061.38;5111044;28;20028;-81
2022/03/08 03:08:46;;;;;;;44.25;19.55;;;;;;;-3.47;71.49;99060.09;5111325;28;20028;-80
2022/03/08 03:11:11;;;;;;;45.25;20.35;;;;;;;-3.49;71.70;99054.09;5110379;28;20023;-81
2022/03/08 03:13:37;;;;;;;54.88;21.15;;;;;;;-3.54;71.35;99054.66;5106180;28;20034;-83
2022/03/08 03:16:02;;;;;;;53.90;21.00;;;;;;;-3.57;71.50;99062.25;5109999;28;20475;-84
2022/03/08 03:18:28;;;;;;;47.63;19.50;;;;;;;-3.62;71.32;99065.50;5110591;28;20038;-80
2022/03/08 03:20:53;;;;;;;39.78;19.27;;;;;;;-3.65;71.03;99069.41;5111351;28;20112;-79
2022/03/08 03:23:19;;;;;;;45.00;18.85;;;;;;;-3.66;71.37;99072.25;5114695;28;20023;-78
2022/03/08 03:25:44;;;;;;;41.75;18.77;;;;;;;-3.69;71.54;99078.00;5114559;28;20040;-78
2022/03/08 03:28:09;;;;;;;41.30;17.90;;;;;;;-3.72;71.48;99076.53;5114473;28;20023;-77
2022/03/08 03:30:36;;;;;;;41.60;18.25;;;;;;;-3.75;71.82;99080.41;5114790;28;20034;-77
2022/03/08 03:33:03;;;;;;;35.17;17.35;;;;;;;-3.77;71.58;99086.97;5114754;28;20417;-79
2022/03/08 03:35:29;;;;;;;37.47;17.92;;;;;;;-3.80;71.54;99088.19;5114721;28;20032;-79
2022/03/08 03:37:54;;;;;;;33.70;16.63;;;;;;;-3.82;71.62;99092.06;5114416;28;20583;-81
2022/03/08 03:40:20;;;;;;;35.70;18.88;;;;;;;-3.86;71.46;99088.94;5114643;28;20032;-79
2022/03/08 03:42:45;;;;;;;37.25;18.77;;;;;;;-3.89;71.59;99090.16;5113063;28;20521;-79
2022/03/08 03:45:11;;;;;;;42.72;21.15;;;;;;;-3.92;71.84;99079.81;5113394;28;20475;-79
2022/03/08 03:47:37;;;;;;;38.10;17.27;;;;;;;-3.93;72.17;99088.84;5094782;28;20111;-78
2022/03/08 03:50:05;;;;;;;39.60;20.92;;;;;;;-3.97;72.10;99090.25;5114052;28;20129;-79
2022/03/08 03:52:30;;;;;;;45.60;21.85;;;;;;;-3.98;72.07;99087.75;5113828;28;20042;-79
2022/03/08 03:54:56;;;;;;;35.83;17.98;;;;;;;-4.01;72.29;99088.09;5114335;28;20153;-78
2022/03/08 03:57:21;;;;;;;36.95;17.27;;;;;;;-4.01;72.08;99097.00;5113406;28;20028;-78
2022/03/08 03:59:47;;;;;;;30.70;16.23;;;;;;;-4.03;72.07;99094.47;5111666;28;20050;-79
2022/03/08 04:02:12;;;;;;;35.75;18.60;;;;;;;-4.05;72.21;99098.38;5112336;28;20031;-79
2022/03/08 04:04:38;;;;;;;40.58;22.17;;;;;;;-4.08;71.82;99090.72;5112027;28;20024;-78
2022/03/08 04:07:04;;;;;;;34.72;18.33;;;;;;;-4.08;72.09;99091.56;5111794;28;20042;-78
2022/03/08 04:09:29;;;;;;;31.05;18.02;;;;;;;-4.08;72.28;99090.72;5111604;28;20027;-78
2022/03/08 04:11:55;;;;;;;37.35;17.73;;;;;;;-4.11;72.31;99096.44;5111590;28;20024;-78
2022/03/08 04:14:20;;;;;;;34.15;15.82;;;;;;;-4.13;72.35;99096.63;5113484;28;20024;-78
2022/03/08 04:16:45;;;;;;;35.30;16.98;;;;;;;-4.14;72.34;99102.16;5113609;28;20368;-78
2022/03/08 04:19:12;;;;;;;36.78;17.30;;;;;;;-4.17;72.58;99108.72;5113544;28;20163;-78
2022/03/08 04:21:38;;;;;;;32.42;16.50;;;;;;;-4.23;72.03;99102.25;5112677;28;20042;-78
2022/03/08 04:24:04;;;;;;;38.05;15.73;;;;;;;-4.26;72.39;99105.28;5113076;28;20027;-78
2022/03/08 04:26:29;;;;;;;34.92;16.48;;;;;;;-4.28;72.41;99111.84;5093005;28;20032;-79
2022/03/08 04:28:55;;;;;;;37.17;17.02;;;;;;;-4.28;72.75;99119.88;5113933;28;20019;-78
2022/03/08 04:31:20;;;;;;;35.78;18.00;;;;;;;-4.24;73.02;99118.50;5112274;28;20047;-78
2022/03/08 04:33:45;;;;;;;36.80;17.33;;;;;;;-4.23;72.75;99115.63;5112717;28;20026;-78
2022/03/08 04:36:11;;;;;;;38.13;19.02;;;;;;;-4.23;72.18;99118.31;5112742;28;20046;-78
2022/03/08 04:38:36;;;;;;;38.05;19.08;;;;;;;-4.23;72.30;99114.81;5112850;28;20063;-78
2022/03/08 04:41:05;;;;;;;38.03;18.83;;;;;;;-4.21;72.91;99112.78;5113215;28;20487;-79
2022/03/08 04:43:31;;;;;;;36.25;17.95;;;;;;;-4.20;72.96;99109.09;5112716;28;20024;-79
2022/03/08 04:45:56;;;;;;;35.00;18.10;;;;;;;-4.20;72.74;99109.91;5112421;28;20035;-78
2022/03/08 04:48:22;;;;;;;37.15;18.08;;;;;;;-4.15;72.61;99124.59;5112852;28;20092;-79
2022/03/08 04:50:47;;;;;;;33.38;16.20;;;;;;;-4.07;73.03;99135.25;5112219;28;20396;-79
2022/03/08 04:53:12;;;;;;;32.17;17.08;;;;;;;-4.00;73.14;99130.81;5112722;28;20103;-79
2022/03/08 04:55:38;;;;;;;35.63;16.58;;;;;;;-3.91;73.03;99136.91;5113005;28;20410;-79
2022/03/08 04:58:03;;;;;;;36.58;17.40;;;;;;;-3.87;72.64;99118.63;5113204;28;20396;-78
2022/03/08 05:00:29;;;;;;;37.80;16.25;;;;;;;-3.79;73.22;99126.53;5112294;28;20047;-79
2022/03/08 05:02:54;;;;;;;38.97;19.38;;;;;;;-3.75;72.89;99122.47;5112427;28;20440;-79
2022/03/08 05:05:20;;;;;;;29.27;15.48;;;;;;;-3.63;73.18;99131.69;5094093;28;20047;-79
2022/03/08 05:07:45;;;;;;;36.80;17.58;;;;;;;-3.54;73.52;99135.09;5112375;28;20031;-79
2022/03/08 05:10:12;;;;;;;32.50;16.13;;;;;;;-3.39;73.77;99135.06;5112314;28;20024;-78
2022/03/08 05:12:39;;;;;;;37.33;19.40;;;;;;;-3.26;73.69;99134.38;5112173;28;20030;-78
2022/03/08 05:15:06;;;;;;;34.22;16.48;;;;;;;-3.20;73.36;99136.31;5111989;28;20024;-79
2022/03/08 05:17:31;;;;;;;34.95;15.75;;;;;;;-3.18;73.52;99133.44;5112350;28;20487;-79
2022/03/08 05:19:57;;;;;;;32.10;15.30;;;;;;;-3.09;73.54;99134.16;5112189;28;20031;-79
2022/03/08 05:22:22;;;;;;;31.70;14.55;;;;;;;-3.01;73.57;99144.78;5111606;28;20024;-79
2022/03/08 05:24:48;;;;;;;33.88;15.55;;;;;;;-2.96;73.79;99149.56;5111848;28;20085;-80
2022/03/08 05:27:14;;;;;;;31.90;17.30;;;;;;;-2.89;73.70;99150.47;5112022;28;20391;-79
2022/03/08 05:29:39;;;;;;;31.88;15.00;;;;;;;-2.78;73.63;99157.16;5112247;28;20063;-79
2022/03/08 05:32:05;;;;;;;35.35;16.77;;;;;;;-2.76;73.31;99155.97;5111757;28;20472;-79
2022/03/08 05:34:30;;;;;;;35.10;15.60;;;;;;;-2.70;73.35;99159.72;5090860;28;20032;-79
2022/03/08 05:36:56;;;;;;;35.47;16.25;;;;;;;-2.68;73.13;99156.88;5112444;28;20487;-79
2022/03/08 05:39:22;;;;;;;32.80;17.90;;;;;;;-2.68;73.24;99154.19;5112277;28;20381;-79
2022/03/08 05:41:48;;;;;;;37.47;17.63;;;;;;;-2.67;73.33;99155.84;5111456;28;20027;-78
2022/03/08 05:44:14;;;;;;;35.00;16.67;;;;;;;-2.70;73.23;99163.25;5111326;28;20031;-79
2022/03/08 05:46:39;;;;;;;35.25;16.42;;;;;;;-2.64;73.45;99156.28;5111420;28;20023;-79
2022/03/08 05:49:05;;;;;;;34.78;17.02;;;;;;;-2.56;73.18;99158.81;5111457;28;20035;-79
2022/03/08 05:51:30;;;;;;;31.42;15.07;;;;;;;-2.49;73.58;99164.25;5110922;28;20023;-79
2022/03/08 05:53:56;;;;;;;36.47;16.65;;;;;;;-2.43;73.48;99163.47;5111244;28;20064;-79
2022/03/08 05:56:21;;;;;;;37.08;17.38;;;;;;;-2.35;73.59;99170.56;5111870;28;20043;-79
2022/03/08 05:58:46;;;;;;;37.20;17.80;;;;;;;-2.34;73.21;99179.47;5111460;28;20051;-79
2022/03/08 06:01:12;;;;;;;33.33;17.20;;;;;;;-2.36;73.32;99178.81;5111742;28;20020;-78
2022/03/08 06:03:38;;;;;;;30.58;16.20;;;;;;;-2.30;73.39;99184.25;5111574;28;20019;-79
2022/03/08 06:06:03;;;;;;;31.08;16.05;;;;;;;-2.26;73.11;99182.00;5112108;28;20542;-78
2022/03/08 06:08:29;;;;;;;34.78;18.77;;;;;;;-2.24;73.01;99179.94;5112110;28;20024;-79
2022/03/08 06:10:54;;;;;;;36.90;16.67;;;;;;;-2.22;73.19;99183.25;5111283;28;20015;-78
2022/03/08 06:13:19;;;;;;;37.60;18.63;;;;;;;-2.21;73.06;99190.28;5111295;28;20023;-78
2022/03/08 06:15:45;;;;;;;32.38;16.58;;;;;;;-2.16;72.94;99187.03;5111721;28;20097;-78
2022/03/08 06:18:10;;;;;;;31.42;16.17;;;;;;;-2.15;73.07;99192.22;5111265;28;20016;-79
2022/03/08 06:20:36;;;;;;;31.08;15.52;;;;;;;-2.06;72.94;99192.91;5111031;28;20146;-78
2022/03/08 06:23:01;;;;;;;36.53;16.77;;;;;;;-2.03;73.02;99199.75;5111221;28;20023;-79
2022/03/08 06:25:26;;;;;;;33.63;16.52;;;;;;;-2.00;73.12;99192.09;5111316;28;20475;-78
2022/03/08 06:27:52;;;;;;;32.60;16.60;;;;;;;-1.86;73.32;99194.88;5093100;28;20026;-79
2022/03/08 06:30:17;;;;;;;32.92;15.98;;;;;;;-1.78;73.35;99185.81;5111307;28;20046;-78
2022/03/08 06:32:43;;;;;;;35.25;16.15;;;;;;;-1.77;72.84;99187.50;5110296;28;20020;-80
2022/03/08 06:35:08;;;;;;;31.13;15.65;;;;;;;-1.82;72.85;99196.97;5110710;28;20028;-77
2022/03/08 06:37:34;;;;;;;49.80;20.65;;;;;;;-1.87;73.17;99198.59;5110671;28;20031;-77
2022/03/08 06:39:59;;;;;;;41.47;18.15;;;;;;;-1.92;73.31;99204.59;5110502;28;20353;-78
2022/03/08 06:42:25;;;;;;;32.90;16.00;;;;;;;-1.93;73.68;99207.44;5110960;28;20035;-77
2022/03/08 06:44:50;;;;;;;36.17;16.15;;;;;;;-1.93;73.14;99204.75;5111257;28;20035;-78
2022/03/08 06:47:16;;;;;;;39.03;17.08;;;;;;;-1.96;73.47;99206.00;5111065;28;20431;-78
2022/03/08 06:49:41;;;;;;;42.05;19.00;;;;;;;-1.92;73.27;99211.81;5110102;28;20096;-77
2022/03/08 06:52:08;;;;;;;35.33;17.35;;;;;;;-1.80;73.60;99211.06;5110861;28;20448;-78
2022/03/08 06:54:35;;;;;;;40.30;16.58;;;;;;;-1.71;73.53;99216.28;5110753;28;20024;-78
2022/03/08 06:57:00;;;;;;;43.97;20.02;;;;;;;-1.70;72.96;99221.50;5110879;28;20023;-78
2022/03/08 06:59:26;;;;;;;50.05;23.42;;;;;;;-1.70;73.14;99226.03;5110717;28;20996;-78
2022/03/08 07:01:52;;;;;;;43.53;19.38;;;;;;;-1.72;73.37;99223.53;5110260;28;20387;-78
2022/03/08 07:04:18;;;;;;;31.10;15.60;;;;;;;-1.62;73.70;99227.72;5111120;28;20046;-79
2022/03/08 07:06:43;;;;;;;35.25;15.98;;;;;;;-1.62;73.46;99231.25;5110586;28;20051;-79
2022/03/08 07:09:09;;;;;;;44.60;20.25;;;;;;;-1.61;73.38;99232.06;5111124;28;20103;-79
2022/03/08 07:11:36;;;;;;;40.22;18.30;;;;;;;-1.65;73.78;99227.09;5110923;28;20042;-79
2022/03/08 07:14:02;;;;;;;38.42;15.77;;;;;;;-1.59;74.46;99221.94;5110900;28;20026;-80
2022/03/08 07:16:27;;;;;;;39.80;18.60;;;;;;;-1.46;73.87;99215.81;5111022;28;20058;-80
2022/03/08 07:18:53;;;;;;;256.42;77.90;;;;;;;-1.32;73.75;99214.84;5110707;28;20031;-80
2022/03/08 07:21:18;;;;;;;47.55;20.60;;;;;;;-1.36;73.44;99208.19;5110554;28;20024;-79
2022/03/08 07:23:44;;;;;;;43.67;18.95;;;;;;;-1.41;73.62;99213.34;5110642;28;20024;-80
2022/03/08 07:26:09;;;;;;;55.80;23.50;;;;;;;-1.47;73.41;99214.16;5110753;28;20023;-80
2022/03/08 07:28:35;;;;;;;46.80;20.40;;;;;;;-1.48;74.30;99217.88;5110427;28;20360;-80
2022/03/08 07:31:01;;;;;;;55.65;25.25;;;;;;;-1.42;74.54;99220.59;5110598;28;20072;-80
2022/03/08 07:33:27;;;;;;;47.97;20.58;;;;;;;-1.37;73.82;99231.59;5110181;28;20027;-79
2022/03/08 07:35:52;;;;;;;78.40;32.53;;;;;;;-1.33;73.98;99215.88;5110613;28;20032;-80
2022/03/08 07:38:18;;;;;;;66.65;27.10;;;;;;;-1.25;73.95;99210.31;5092480;28;20020;-81
2022/03/08 07:40:43;;;;;;;53.05;24.10;;;;;;;-1.21;73.59;99221.50;5110339;28;20038;-80
2022/03/08 07:43:09;;;;;;;83.75;31.15;;;;;;;-1.11;73.66;99218.47;5109594;28;20304;-80
2022/03/08 07:45:36;;;;;;;511.73;191.13;;;;;;;-1.03;73.36;99214.75;5110080;28;20028;-81
2022/03/08 07:48:02;;;;;;;258.95;86.78;;;;;;;-0.91;73.74;99216.66;5110413;28;20033;-80
2022/03/08 07:50:28;;;;;;;81.43;35.97;;;;;;;-0.86;73.38;99218.75;5110460;28;20032;-81
2022/03/08 07:52:54;;;;;;;58.70;27.60;;;;;;;-0.83;73.06;99236.38;5110300;28;20476;-81
2022/03/08 07:55:20;;;;;;;66.32;30.58;;;;;;;-0.78;73.03;99226.63;5110709;28;20019;-81
2022/03/08 07:57:46;;;;;;;64.05;31.85;;;;;;;-0.69;73.45;99221.91;5110931;28;20030;-79
2022/03/08 08:00:12;;;;;;;47.85;22.00;;;;;;;-0.63;73.05;99226.50;5092578;28;20020;-78
2022/03/08 08:02:37;;;;;;;50.42;25.13;;;;;;;-0.66;72.82;99229.59;5110693;28;20034;-79
2022/03/08 08:05:03;;;;;;;45.95;22.80;;;;;;;-0.57;72.86;99215.91;5110786;28;20028;-80
2022/03/08 08:07:29;;;;;;;58.00;32.08;;;;;;;-0.52;72.41;99225.06;5112119;28;20022;-78
2022/03/08 08:09:54;;;;;;;60.03;31.98;;;;;;;-0.52;72.77;99218.81;5114443;28;20075;-76
2022/03/08 08:12:20;;;;;;;56.38;27.88;;;;;;;-0.39;73.04;99220.69;5114200;28;20380;-75
2022/03/08 08:14:45;;;;;;;59.08;27.75;;;;;;;-0.27;72.92;99219.06;5095889;28;20024;-77
2022/03/08 08:17:11;;;;;;;65.28;26.90;;;;;;;-0.17;73.02;99214.09;5114312;28;20019;-76
2022/03/08 08:19:36;;;;;;;42.75;21.00;;;;;;;-0.07;72.74;99220.94;5113952;28;20030;-76
2022/03/08 08:22:01;;;;;;;43.80;21.25;;;;;;;-0.11;72.28;99227.78;5113903;28;20035;-77
2022/03/08 08:24:27;;;;;;;37.30;18.70;;;;;;;-0.02;72.29;99230.06;5113711;28;20027;-77
2022/03/08 08:26:52;;;;;;;38.25;20.10;;;;;;;-0.01;72.38;99222.81;5113834;28;20027;-77
2022/03/08 08:29:18;;;;;;;44.65;21.88;;;;;;;0.04;72.09;99219.47;5113854;28;20034;-76
2022/03/08 08:31:43;;;;;;;45.80;23.27;;;;;;;0.03;71.68;99223.22;5091149;28;20028;-77
2022/03/08 08:34:09;;;;;;;46.50;22.63;;;;;;;0.09;71.77;99233.97;5113095;28;20379;-77
2022/03/08 08:36:34;;;;;;;43.15;22.30;;;;;;;0.20;71.78;99234.41;5113255;28;20073;-77
2022/03/08 08:39:00;;;;;;;39.28;20.75;;;;;;;0.19;71.58;99232.72;5112766;28;20028;-77
2022/03/08 08:41:25;;;;;;;62.10;27.15;;;;;;;0.28;71.32;99234.19;5112248;28;20023;-77
2022/03/08 08:43:51;;;;;;;53.13;24.77;;;;;;;0.35;71.65;99236.88;5113161;28;20026;-78
2022/03/08 08:46:17;;;;;;;37.45;19.20;;;;;;;0.28;71.16;99245.78;5110945;28;20107;-78
2022/03/08 08:48:42;;;;;;;35.60;19.50;;;;;;;0.26;71.19;99247.06;5112248;28;20110;-77
2022/03/08 08:51:08;;;;;;;36.45;20.17;;;;;;;0.25;70.87;99248.91;5112578;28;20028;-77
2022/03/08 08:53:33;;;;;;;41.30;20.85;;;;;;;0.29;71.13;99252.03;5111893;28;20035;-83
2022/03/08 08:55:59;;;;;;;53.65;23.95;;;;;;;0.36;70.94;99244.75;5112083;28;20038;-84
2022/03/08 08:58:24;;;;;;;39.03;19.17;;;;;;;0.36;70.88;99257.41;5112460;28;20051;-76
2022/03/08 09:00:50;;;;;;;38.20;20.55;;;;;;;0.38;70.82;99253.47;5111881;28;20028;-75
2022/03/08 09:03:16;;;;;;;40.78;21.35;;;;;;;0.39;70.43;99251.59;5111966;28;20118;-78
2022/03/08 09:05:44;;;;;;;36.20;19.80;;;;;;;0.32;71.09;99253.47;5112273;28;20031;-78
2022/03/08 09:08:10;;;;;;;45.10;23.40;;;;;;;0.42;70.89;99248.47;5112116;28;20035;-78
2022/03/08 09:10:36;;;;;;;38.40;20.35;;;;;;;0.67;70.84;99250.50;5111707;28;20027;-75
2022/03/08 09:13:02;;;;;;;42.83;20.50;;;;;;;0.82;71.01;99252.94;5093209;28;20023;-76
2022/03/08 09:15:27;;;;;;;35.47;20.20;;;;;;;0.87;70.68;99253.13;5112019;28;20027;-77
2022/03/08 09:17:53;;;;;;;43.97;25.15;;;;;;;0.85;70.61;99256.06;5111900;28;20027;-77
2022/03/08 09:20:19;;;;;;;38.25;21.70;;;;;;;0.95;69.84;99258.31;5112216;28;20016;-81
2022/03/08 09:22:44;;;;;;;36.90;20.10;;;;;;;1.01;70.46;99253.94;5111423;28;20047;-76
2022/03/08 09:25:10;;;;;;;36.70;18.80;;;;;;;1.13;70.12;99262.19;5111819;28;20030;-78
2022/03/08 09:27:35;;;;;;;45.92;22.63;;;;;;;1.23;70.38;99261.72;5107935;28;20387;-78
2022/03/08 09:30:05;;;;;;;43.47;20.63;;;;;;;1.32;69.46;99263.13;5085854;28;20035;-77
2022/03/08 09:32:31;;;;;;;34.55;19.33;;;;;;;1.43;69.63;99261.63;5109039;28;20043;-74
2022/03/08 09:34:56;;;;;;;36.42;18.35;;;;;;;1.53;69.57;99267.41;5103252;28;20070;-76
2022/03/08 09:37:22;;;;;;;34.50;17.63;;;;;;;1.58;69.14;99269.44;5092412;28;20468;-77
2022/03/08 09:39:47;;;;;;;34.95;18.08;;;;;;;1.62;68.43;99271.50;5110425;28;20031;-77
2022/03/08 09:42:13;;;;;;;29.88;15.90;;;;;;;1.57;68.09;99274.03;5109507;27;20032;-74
2022/03/08 09:44:38;;;;;;;27.38;14.45;;;;;;;1.63;67.99;99275.84;5110491;28;20076;-75
2022/03/08 09:47:05;;;;;;;28.88;16.13;;;;;;;1.67;67.88;99270.00;5107888;28;20081;-77
2022/03/08 09:49:31;;;;;;;29.65;15.27;;;;;;;1.70;67.34;99273.13;5106944;28;20049;-75
2022/03/08 09:51:56;;;;;;;27.05;13.75;;;;;;;1.78;67.80;99282.84;5109594;27;20483;-78
2022/03/08 09:54:21;;;;;;;29.45;15.18;;;;;;;1.82;67.72;99275.13;5111120;27;20031;-73
2022/03/08 09:56:48;;;;;;;28.65;16.20;;;;;;;1.77;68.22;99273.06;5108351;28;20031;-74
2022/03/08 09:59:17;;;;;;;30.85;15.90;;;;;;;1.68;67.49;99277.06;5100743;28;20165;-77
2022/03/08 10:01:44;;;;;;;27.88;14.20;;;;;;;1.49;66.36;99290.50;5107736;28;20024;-76
2022/03/08 10:04:09;;;;;;;30.10;17.25;;;;;;;1.38;66.54;99283.91;5109161;28;20031;-73
2022/03/08 10:06:40;;;;;;;43.53;24.38;;;;;;;1.26;66.72;99283.72;5109607;28;20619;-75
2022/03/08 10:09:17;;;;;;;26.27;14.70;;;;;;;1.17;66.61;99293.97;5110124;28;20031;-76
2022/03/08 10:11:43;;;;;;;35.53;18.48;;;;;;;1.16;66.56;99281.50;5109625;27;20031;-81
2022/03/08 10:14:14;;;;;;;33.50;18.38;;;;;;;1.14;66.44;99278.19;5105123;28;20108;-81
2022/03/08 10:16:47;;;;;;;43.63;24.85;;;;;;;1.25;67.01;99273.97;5113722;27;20111;-73
2022/03/08 10:19:13;;;;;;;72.07;32.97;;;;;;;1.48;65.84;99265.31;5110232;28;20484;-73
2022/03/08 10:21:54;;;;;;;98.35;44.88;;;;;;;1.69;66.23;99267.91;5110429;27;20015;-74
2022/03/08 10:24:32;;;;;;;45.38;25.80;;;;;;;1.80;65.29;99275.31;5083025;28;20092;-73
2022/03/08 10:27:08;;;;;;;26.38;15.55;;;;;;;1.81;63.57;99270.75;5106416;28;20076;-73
2022/03/08 10:29:36;;;;;;;44.47;22.33;;;;;;;1.92;64.28;99270.03;5107841;28;20027;-75
2022/03/08 10:32:17;;;;;;;52.58;26.60;;;;;;;2.00;64.35;99267.06;5107831;28;20098;-72
2022/03/08 10:34:45;;;;;;;27.42;16.10;;;;;;;1.95;63.39;99266.91;5109687;28;20030;-80
2022/03/08 10:37:18;;;;;;;25.52;15.65;;;;;;;1.94;63.68;99270.66;5108379;28;20751;-72
2022/03/08 10:39:53;;;;;;;30.95;14.98;;;;;;;2.02;63.75;99266.88;5109576;27;20059;-75
2022/03/08 10:42:23;;;;;;;19.67;12.27;;;;;;;2.01;62.54;99259.78;5109173;28;20089;-73
2022/03/08 10:44:49;;;;;;;18.58;12.30;;;;;;;2.02;62.54;99256.03;5109341;28;20048;-77
2022/03/08 10:47:16;;;;;;;20.63;12.68;;;;;;;2.10;63.11;99254.94;5108928;28;20081;-75
2022/03/08 10:50:02;;;;;;;16.33;9.18;;;;;;;2.05;62.63;99253.72;5109425;28;20055;-76
2022/03/08 10:52:33;;;;;;;35.08;21.73;;;;;;;2.07;62.23;99261.59;5109012;28;20031;-76
2022/03/08 10:55:28;;;;;;;17.85;10.10;;;;;;;2.18;61.37;99255.47;5109643;28;20031;-76
2022/03/08 10:57:56;;;;;;;16.35;9.82;;;;;;;2.25;61.59;99244.56;5093807;28;20067;-75
2022/03/08 11:00:29;;;;;;;16.33;9.07;;;;;;;2.40;61.83;99244.25;5109581;28;20055;-76
2022/03/08 11:02:59;;;;;;;13.05;6.05;;;;;;;2.55;61.40;99241.19;5101985;28;20068;-75
2022/03/08 11:05:27;;;;;;;11.43;6.20;;;;;;;2.72;60.44;99241.41;5109614;28;20068;-77
2022/03/08 11:07:55;;;;;;;10.85;6.50;;;;;;;2.87;60.66;99235.63;5108531;28;20441;-75
2022/03/08 11:10:21;;;;;;;19.10;9.73;;;;;;;2.93;61.04;99232.00;5108348;28;20020;-75
2022/03/08 11:12:47;;;;;;;14.18;8.15;;;;;;;2.98;60.82;99226.75;5104203;28;20028;-77
2022/03/08 11:15:15;;;;;;;17.92;9.07;;;;;;;2.91;59.91;99230.56;5108201;28;20117;-74